Time;durP1;ratioP1;P1;durP2;ratioP2;P2;SDS_P1;SDS_P2;PMS_P1;PMS_P2;Temp;Humidity;BMP_temperature;BMP_pressure;BME280_temperature;BME280_humidity;BME280_pressure;Samples;Min_cycle;Max_cycle;Signal;HPM_P1;HPM_P2
2022/01/04 00:00:38;;;;;;;2.33;0.69;;;;;;;10.53;98.75;98222.38;1991144;78;21094;-72
2022/01/04 00:03:41;;;;;;;2.14;0.60;;;;;;;10.53;98.57;98212.00;1993329;81;20292;-71
2022/01/04 00:06:46;;;;;;;1.52;0.66;;;;;;;10.51;98.62;98199.06;1993111;81;20212;-72
2022/01/04 00:09:51;;;;;;;1.39;0.54;;;;;;;10.51;98.59;98196.47;1993377;81;20223;-72
2022/01/04 00:16:15;;;;;;;1.86;0.61;;;;;;;10.50;98.50;98184.38;1992272;78;22048;-72
2022/01/04 00:19:18;;;;;;;1.17;0.69;;;;;;;10.48;98.56;98175.78;1996467;81;20194;-72
2022/01/04 00:22:20;;;;;;;2.22;0.60;;;;;;;10.48;98.63;98172.31;1996797;81;20170;-72
2022/01/04 00:25:23;;;;;;;1.40;0.52;;;;;;;10.45;98.58;98149.06;1996662;81;20355;-72
2022/01/04 00:28:27;;;;;;;3.51;0.73;;;;;;;10.45;98.73;98143.88;1996393;81;20159;-73
2022/01/04 00:31:29;;;;;;;0.60;0.55;;;;;;;10.41;98.77;98132.72;1992795;79;22922;-73
2022/01/04 00:34:32;;;;;;;0.85;0.85;;;;;;;10.40;98.84;98123.19;2059170;70;20211;-72
2022/01/04 00:37:35;;;;;;;1.25;0.47;;;;;;;10.41;98.96;98111.94;2001847;81;20211;-72
2022/01/04 00:40:41;;;;;;;0.90;0.65;;;;;;;10.42;98.76;98118.84;2001475;81;20201;-72
2022/01/04 00:43:45;;;;;;;3.24;0.74;;;;;;;10.42;98.76;98103.28;2001746;81;20219;-72
2022/01/04 00:46:47;;;;;;;3.33;0.50;;;;;;;10.42;98.79;98102.41;2002926;78;21448;-73
2022/01/04 00:49:50;;;;;;;1.08;0.64;;;;;;;10.39;98.75;98090.34;2006574;80;20316;-72
2022/01/04 00:52:53;;;;;;;1.04;0.61;;;;;;;10.38;98.88;98082.59;2006220;80;21271;-72
2022/01/04 00:55:55;;;;;;;1.08;0.60;;;;;;;10.38;98.91;98067.88;2007540;80;20241;-72
2022/01/04 00:58:58;;;;;;;1.33;0.50;;;;;;;10.35;99.04;98064.53;2008534;80;20810;-72
2022/01/04 01:02:01;;;;;;;2.10;0.70;;;;;;;10.36;99.07;98058.44;2001874;78;24095;-72
2022/01/04 01:05:05;;;;;;;2.71;0.66;;;;;;;10.34;99.01;98047.25;2009045;80;20207;-73
2022/01/04 01:08:08;;;;;;;2.42;0.82;;;;;;;10.33;99.29;98035.19;2008301;80;20324;-73
2022/01/04 01:11:10;;;;;;;2.09;1.10;;;;;;;10.31;99.23;98032.63;2008433;80;20633;-72
2022/01/04 01:14:13;;;;;;;3.49;0.88;;;;;;;10.33;99.22;98030.84;2008363;80;20296;-72
2022/01/04 01:17:16;;;;;;;1.74;0.76;;;;;;;10.34;99.08;98031.69;2006994;78;20757;-73
2022/01/04 01:20:18;;;;;;;3.13;0.73;;;;;;;10.32;99.15;98023.09;2007959;80;20675;-72
2022/01/04 01:23:21;;;;;;;3.45;1.10;;;;;;;10.28;99.25;98020.59;2008269;80;20572;-72
2022/01/04 01:26:24;;;;;;;1.81;0.94;;;;;;;10.24;99.50;98028.50;2008304;80;20952;-72
2022/01/04 01:29:28;;;;;;;1.48;0.80;;;;;;;10.22;99.79;98019.88;2008549;80;20190;-72
2022/01/04 01:32:31;;;;;;;2.10;1.15;;;;;;;10.22;99.86;98023.31;2007071;78;23524;-71
2022/01/04 01:35:35;;;;;;;1.10;0.93;;;;;;;10.21;99.89;98005.19;2008615;80;20715;-72
2022/01/04 01:38:38;;;;;;;1.23;0.85;;;;;;;10.20;100.00;98009.50;2008502;80;20266;-72
2022/01/04 01:41:40;;;;;;;1.11;0.76;;;;;;;10.20;100.00;97993.94;2007822;80;20189;-71
2022/01/04 01:44:43;;;;;;;0.70;0.70;;;;;;;10.16;100.00;97997.50;2008281;80;20719;-72
2022/01/04 01:47:46;;;;;;;0.88;0.88;;;;;;;10.16;100.00;97994.91;2006475;77;20202;-71
2022/01/04 01:50:48;;;;;;;1.19;0.88;;;;;;;10.14;100.00;97995.84;2008144;80;20258;-72
2022/01/04 01:53:51;;;;;;;2.31;0.95;;;;;;;10.12;100.00;97995.03;2008475;80;20177;-72
2022/01/04 01:56:54;;;;;;;1.33;0.70;;;;;;;10.11;100.00;97989.00;2008321;80;21122;-73
2022/01/04 01:59:58;;;;;;;1.01;0.70;;;;;;;10.08;100.00;97981.28;2007529;80;20172;-72
2022/01/04 02:03:02;;;;;;;1.83;0.89;;;;;;;10.05;100.00;97970.13;2006298;78;21764;-72
2022/01/04 02:06:06;;;;;;;1.81;0.88;;;;;;;10.03;100.00;97964.97;2008028;80;20306;-72
2022/01/04 02:09:08;;;;;;;0.70;0.70;;;;;;;10.03;100.00;97954.59;2008620;80;20197;-73
2022/01/04 02:12:11;;;;;;;1.01;0.69;;;;;;;10.02;100.00;97957.25;2007858;80;20181;-72
2022/01/04 02:15:16;;;;;;;0.85;0.70;;;;;;;10.02;100.00;97941.69;2006281;80;20185;-72
2022/01/04 02:18:19;;;;;;;1.04;0.98;;;;;;;10.03;100.00;97930.41;2007596;77;21148;-72
2022/01/04 02:21:22;;;;;;;0.70;0.70;;;;;;;10.02;100.00;97918.34;2008126;80;20189;-72
2022/01/04 02:24:25;;;;;;;1.41;0.77;;;;;;;10.01;100.00;97917.50;2007944;80;20336;-72
2022/01/04 02:27:27;;;;;;;1.00;0.70;;;;;;;10.02;100.00;97913.16;2007473;80;20925;-72
2022/01/04 02:30:30;;;;;;;1.44;1.08;;;;;;;9.98;100.00;97915.00;2006567;77;21300;-72
2022/01/04 02:33:33;;;;;;;1.42;0.70;;;;;;;9.99;100.00;97911.50;2007948;80;20373;-71
2022/01/04 02:36:40;;;;;;;0.91;0.68;;;;;;;9.96;100.00;97903.81;2007418;80;20238;-72
2022/01/04 02:39:42;;;;;;;0.74;0.60;;;;;;;9.94;100.00;97890.88;2008248;80;20369;-72
2022/01/04 02:42:45;;;;;;;1.00;0.64;;;;;;;9.93;100.00;97885.75;2007181;80;21046;-72
2022/01/04 02:45:47;;;;;;;2.47;0.60;;;;;;;9.92;100.00;97881.44;2005788;78;25202;-72
2022/01/04 02:48:51;;;;;;;1.00;0.80;;;;;;;9.94;100.00;97864.09;2007715;80;20189;-72
2022/01/04 02:51:54;;;;;;;1.45;0.68;;;;;;;9.95;100.00;97869.25;2008647;80;21082;-71
2022/01/04 02:54:56;;;;;;;2.36;0.73;;;;;;;9.95;100.00;97856.28;2007181;80;21183;-71
2022/01/04 02:57:59;;;;;;;0.99;0.68;;;;;;;9.94;100.00;97846.81;2008380;80;20737;-72
2022/01/04 03:01:02;;;;;;;0.77;0.74;;;;;;;9.96;100.00;97845.03;2006248;77;22169;-72
2022/01/04 03:04:07;;;;;;;1.54;0.69;;;;;;;9.94;100.00;97831.25;2009017;80;20866;-72
2022/01/04 03:07:10;;;;;;;1.13;0.66;;;;;;;9.94;100.00;97826.06;2009026;80;20981;-71
2022/01/04 03:10:13;;;;;;;4.28;0.79;;;;;;;9.92;100.00;97825.25;2009420;80;20191;-71
2022/01/04 03:13:16;;;;;;;1.24;0.80;;;;;;;9.92;100.00;97806.25;2009065;80;20711;-72
2022/01/04 03:16:19;;;;;;;1.17;0.70;;;;;;;9.89;100.00;97801.16;2007390;78;20318;-71
2022/01/04 03:19:21;;;;;;;1.21;0.79;;;;;;;9.88;100.00;97797.72;2009279;80;20247;-71
2022/01/04 03:22:24;;;;;;;1.11;0.65;;;;;;;9.84;100.00;97787.47;2010054;80;20254;-72
2022/01/04 03:25:27;;;;;;;0.88;0.59;;;;;;;9.86;100.00;97780.50;2010181;80;20203;-71
2022/01/04 03:28:30;;;;;;;1.23;0.65;;;;;;;9.84;100.00;97777.94;2010798;80;20214;-71
2022/01/04 03:31:33;;;;;;;1.66;0.69;;;;;;;9.83;100.00;97771.06;2008426;78;20892;-72
2022/01/04 03:34:36;;;;;;;1.94;0.70;;;;;;;9.84;100.00;97770.16;2009455;80;20197;-72
2022/01/04 03:37:38;;;;;;;1.60;0.74;;;;;;;9.83;100.00;97765.03;2009475;80;20218;-71
2022/01/04 03:40:41;;;;;;;0.94;0.60;;;;;;;9.82;100.00;97768.50;2010226;80;20597;-71
2022/01/04 03:43:44;;;;;;;0.70;0.70;;;;;;;9.80;100.00;97758.19;2009728;80;20343;-72
2022/01/04 03:46:52;;;;;;;1.17;0.73;;;;;;;9.80;100.00;97763.38;2007384;77;21623;-73
2022/01/04 03:49:55;;;;;;;0.66;0.66;;;;;;;9.80;100.00;97746.97;2009992;80;20182;-72
2022/01/04 03:52:57;;;;;;;0.76;0.76;;;;;;;9.81;100.00;97741.75;2010159;80;20753;-72
2022/01/04 03:56:00;;;;;;;0.79;0.74;;;;;;;9.80;100.00;97736.59;2009323;80;20165;-72
2022/01/04 03:59:03;;;;;;;1.80;0.80;;;;;;;9.79;100.00;97732.31;2009868;80;20348;-72
2022/01/04 04:02:06;;;;;;;0.86;0.60;;;;;;;9.81;100.00;97725.34;2007558;78;21124;-71
2022/01/04 04:05:09;;;;;;;3.29;0.82;;;;;;;9.79;100.00;97717.59;2008528;80;20448;-72
2022/01/04 04:08:12;;;;;;;2.06;1.14;;;;;;;9.80;100.00;97715.88;2009421;80;20239;-72
2022/01/04 04:11:15;;;;;;;1.54;0.70;;;;;;;9.80;100.00;97697.72;2008319;80;20315;-72
2022/01/04 04:14:17;;;;;;;1.85;0.63;;;;;;;9.78;100.00;97690.00;2008639;80;20250;-73
2022/01/04 04:17:40;;;;;;;1.16;0.56;;;;;;;9.75;100.00;97674.53;2007099;78;22776;-72
2022/01/04 04:20:44;;;;;;;1.58;0.60;;;;;;;9.75;100.00;97663.31;2008546;80;20656;-72
2022/01/04 04:23:46;;;;;;;0.93;0.93;;;;;;;9.74;100.00;97662.47;2008324;80;20315;-73
2022/01/04 04:26:49;;;;;;;0.70;0.70;;;;;;;9.74;100.00;97656.44;2011366;80;20311;-72
2022/01/04 04:29:51;;;;;;;0.84;0.63;;;;;;;9.74;100.00;97653.84;2008206;80;20376;-72
2022/01/04 04:32:54;;;;;;;0.88;0.54;;;;;;;9.74;100.00;97649.50;2007356;77;23225;-71
2022/01/04 04:35:57;;;;;;;1.51;0.73;;;;;;;9.75;100.00;97643.44;2008421;80;20925;-72
2022/01/04 04:39:00;;;;;;;0.56;0.44;;;;;;;9.75;100.00;97640.84;2008594;80;20345;-73
2022/01/04 04:42:03;;;;;;;0.57;0.50;;;;;;;9.77;100.00;97631.28;2008772;80;20335;-72
2022/01/04 04:45:08;;;;;;;0.52;0.50;;;;;;;9.76;100.00;97634.75;2007135;80;20799;-72
2022/01/04 04:48:11;;;;;;;0.79;0.60;;;;;;;9.78;100.00;97625.19;2008115;78;21676;-72
2022/01/04 04:51:13;;;;;;;0.89;0.50;;;;;;;9.76;100.00;97628.72;2008453;80;20387;-72
2022/01/04 04:54:16;;;;;;;0.74;0.49;;;;;;;9.77;100.00;97618.31;2008557;80;20392;-72
2022/01/04 04:57:19;;;;;;;0.50;0.50;;;;;;;9.79;100.00;97608.75;2009516;80;20188;-72
2022/01/04 05:00:21;;;;;;;1.11;0.50;;;;;;;9.78;100.00;97612.22;2006354;77;20347;-73
2022/01/04 05:03:24;;;;;;;0.57;0.39;;;;;;;9.79;100.00;97595.78;2011856;80;20331;-71
2022/01/04 05:06:26;;;;;;;0.39;0.39;;;;;;;9.82;100.00;97602.63;2007762;80;20280;-73
2022/01/04 05:09:29;;;;;;;2.16;0.34;;;;;;;9.81;100.00;97590.56;2008324;80;20384;-72
2022/01/04 05:12:32;;;;;;;0.40;0.40;;;;;;;9.80;100.00;97586.28;2008610;80;20293;-73
2022/01/04 05:15:35;;;;;;;0.39;0.39;;;;;;;9.80;100.00;97583.69;2009841;78;26058;-72
2022/01/04 05:18:38;;;;;;;0.69;0.40;;;;;;;9.78;100.00;97568.19;2008539;80;20311;-73
2022/01/04 05:21:41;;;;;;;0.50;0.41;;;;;;;9.78;100.00;97563.00;2008381;80;20307;-72
2022/01/04 05:24:44;;;;;;;0.38;0.30;;;;;;;9.79;100.00;97564.69;2008016;80;20637;-72
2022/01/04 05:27:46;;;;;;;0.38;0.38;;;;;;;9.79;100.00;97558.66;2008076;80;20335;-72
2022/01/04 05:30:50;;;;;;;0.39;0.39;;;;;;;9.79;100.00;97559.50;2006871;77;21230;-72
2022/01/04 05:33:53;;;;;;;0.30;0.30;;;;;;;9.80;100.00;97558.59;2008528;80;20320;-72
2022/01/04 05:36:56;;;;;;;0.99;0.32;;;;;;;9.81;100.00;97547.34;2008162;80;20396;-72
2022/01/04 05:39:59;;;;;;;0.57;0.40;;;;;;;9.84;100.00;97559.34;2007923;80;20354;-72
2022/01/04 05:43:02;;;;;;;0.95;0.40;;;;;;;9.83;100.00;97550.72;2008291;80;20687;-72
2022/01/04 05:46:04;;;;;;;0.30;0.30;;;;;;;9.86;100.00;97547.19;2006837;77;26666;-72
2022/01/04 05:49:07;;;;;;;0.60;0.35;;;;;;;9.85;100.00;97530.78;2008093;80;20281;-72
2022/01/04 05:52:10;;;;;;;0.74;0.40;;;;;;;9.88;100.00;97528.13;2008399;80;20999;-72
2022/01/04 05:55:12;;;;;;;0.40;0.39;;;;;;;9.89;100.00;97526.38;2008354;80;20188;-73
2022/01/04 05:58:15;;;;;;;0.86;0.41;;;;;;;9.90;100.00;97515.13;2008133;80;20416;-73
2022/01/04 06:01:18;;;;;;;0.52;0.50;;;;;;;9.88;100.00;97506.53;2006260;78;20319;-72
2022/01/04 06:04:21;;;;;;;2.75;0.43;;;;;;;9.88;100.00;97499.63;2007616;80;20377;-73
2022/01/04 06:07:24;;;;;;;0.59;0.40;;;;;;;9.88;100.00;97503.94;2007787;80;20300;-72
2022/01/04 06:10:26;;;;;;;0.86;0.50;;;;;;;9.87;100.00;97497.88;2008173;80;20225;-73
2022/01/04 06:16:50;;;;;;;0.40;0.40;;;;;;;9.89;100.00;97487.50;2007054;77;21609;-72
2022/01/04 06:19:55;;;;;;;1.69;0.59;;;;;;;9.91;100.00;97485.69;2008020;80;20332;-73
2022/01/04 06:22:57;;;;;;;1.25;0.50;;;;;;;9.90;100.00;97481.41;2007637;80;20193;-72
2022/01/04 06:26:01;;;;;;;0.64;0.50;;;;;;;9.94;100.00;97480.41;2008126;80;20177;-73
2022/01/04 06:29:03;;;;;;;1.24;0.50;;;;;;;9.91;100.00;97476.19;2008459;80;20395;-72
2022/01/04 06:32:07;;;;;;;0.54;0.54;;;;;;;9.94;100.00;97476.06;2006817;77;22631;-72
2022/01/04 06:35:13;;;;;;;1.00;0.60;;;;;;;9.94;100.00;97467.44;2007965;80;20340;-72
2022/01/04 06:38:16;;;;;;;0.93;0.60;;;;;;;9.96;100.00;97463.91;2007925;80;20296;-72
2022/01/04 06:41:18;;;;;;;0.50;0.50;;;;;;;9.93;100.00;97457.97;2007727;80;20251;-73
2022/01/04 06:44:21;;;;;;;0.71;0.51;;;;;;;9.93;100.00;97456.22;2008197;80;20925;-72
2022/01/04 06:47:24;;;;;;;1.19;0.57;;;;;;;9.93;100.00;97440.69;2004215;78;21650;-73
2022/01/04 06:50:27;;;;;;;0.73;0.50;;;;;;;9.96;100.00;97444.91;2006512;80;20193;-72
2022/01/04 06:53:29;;;;;;;0.60;0.60;;;;;;;9.94;100.00;97439.78;2008345;80;20181;-74
2022/01/04 06:56:32;;;;;;;0.50;0.50;;;;;;;9.95;100.00;97446.66;2008768;80;20266;-73
2022/01/04 06:59:34;;;;;;;0.95;0.60;;;;;;;9.94;100.00;97441.53;2007684;80;20257;-72
2022/01/04 07:02:38;;;;;;;1.38;1.27;;;;;;;9.95;100.00;97428.50;2005968;77;23391;-72
2022/01/04 07:05:40;;;;;;;0.68;0.60;;;;;;;9.94;100.00;97425.97;2008426;80;20633;-72
2022/01/04 07:08:43;;;;;;;2.24;0.51;;;;;;;9.93;100.00;97425.13;2007585;80;20189;-72
2022/01/04 07:11:46;;;;;;;0.98;0.60;;;;;;;9.94;100.00;97406.06;2007869;80;21078;-71
2022/01/04 07:14:48;;;;;;;0.50;0.50;;;;;;;9.95;100.00;97412.09;2008389;80;20189;-72
2022/01/04 07:17:51;;;;;;;0.60;0.60;;;;;;;9.93;100.00;97409.56;2006918;77;21987;-71
2022/01/04 07:20:54;;;;;;;1.01;0.61;;;;;;;9.93;100.00;97409.56;2008036;80;20261;-73
2022/01/04 07:23:57;;;;;;;0.40;0.40;;;;;;;9.95;100.00;97401.75;2009041;80;20207;-72
2022/01/04 07:26:59;;;;;;;0.60;0.40;;;;;;;9.93;100.00;97394.00;2008602;80;20197;-72
2022/01/04 07:30:03;;;;;;;0.63;0.60;;;;;;;9.95;100.00;97384.44;2008343;80;20297;-73
2022/01/04 07:33:06;;;;;;;0.70;0.50;;;;;;;9.94;100.00;97376.72;2008320;77;25614;-73
2022/01/04 07:36:09;;;;;;;0.95;0.61;;;;;;;9.94;100.00;97371.53;2010220;80;20278;-72
2022/01/04 07:39:11;;;;;;;0.74;0.50;;;;;;;9.96;100.00;97369.72;2009579;80;20768;-72
2022/01/04 07:42:14;;;;;;;0.70;0.50;;;;;;;9.95;100.00;97353.31;2009038;80;20324;-72
2022/01/04 07:45:17;;;;;;;1.64;0.60;;;;;;;9.97;100.00;97359.31;2007890;78;20250;-72
2022/01/04 07:48:20;;;;;;;0.75;0.50;;;;;;;9.95;100.00;97349.88;2009705;80;20225;-73
2022/01/04 07:51:23;;;;;;;1.05;0.50;;;;;;;9.96;100.00;97344.66;2010020;80;20169;-73
2022/01/04 07:54:25;;;;;;;1.11;0.47;;;;;;;9.98;100.00;97339.41;2009369;80;20856;-73
2022/01/04 07:57:28;;;;;;;0.40;0.40;;;;;;;10.01;100.00;97336.69;2007157;80;20878;-73
2022/01/04 08:00:30;;;;;;;1.02;0.59;;;;;;;10.00;100.00;97338.44;2004032;78;26549;-73
2022/01/04 08:03:33;;;;;;;1.04;0.64;;;;;;;10.04;100.00;97331.41;2003972;80;20950;-73
2022/01/04 08:06:36;;;;;;;3.03;0.64;;;;;;;10.04;100.00;97334.00;2005630;80;20193;-72
2022/01/04 08:09:39;;;;;;;1.02;0.70;;;;;;;10.04;100.00;97321.03;2006907;80;20261;-72
2022/01/04 08:12:41;;;;;;;1.09;0.60;;;;;;;10.08;100.00;97324.38;2006936;80;20259;-72
2022/01/04 08:15:44;;;;;;;2.04;0.65;;;;;;;10.11;100.00;97313.91;2005220;78;21222;-73
2022/01/04 08:18:46;;;;;;;0.66;0.50;;;;;;;10.13;100.00;97320.72;2007157;80;20185;-73
2022/01/04 08:22:06;;;;;;;1.52;0.69;;;;;;;10.15;100.00;97323.25;2006790;80;20332;-73
2022/01/04 08:25:10;;;;;;;1.24;1.14;;;;;;;10.15;100.00;97313.72;2006414;80;20193;-74
2022/01/04 08:28:13;;;;;;;0.94;0.60;;;;;;;10.13;100.00;97312.94;2009393;80;20177;-74
2022/01/04 08:31:16;;;;;;;1.50;0.82;;;;;;;10.16;100.00;97307.63;2004581;78;23775;-73
2022/01/04 08:34:25;;;;;;;0.50;0.50;;;;;;;10.17;100.00;97304.13;2006124;80;20366;-72
2022/01/04 08:37:29;;;;;;;0.69;0.60;;;;;;;10.20;100.00;97298.84;2006599;80;21291;-72
2022/01/04 08:40:33;;;;;;;0.60;0.60;;;;;;;10.21;100.00;97300.56;2006477;80;20185;-73
2022/01/04 08:43:35;;;;;;;0.91;0.55;;;;;;;10.24;100.00;97286.66;2007224;80;20262;-72
2022/01/04 08:46:40;;;;;;;0.61;0.50;;;;;;;10.25;100.00;97289.19;2004093;78;20662;-72
2022/01/04 08:49:43;;;;;;;1.14;0.50;;;;;;;10.25;100.00;97290.94;2006276;80;20271;-73
2022/01/04 08:52:49;;;;;;;1.11;0.89;;;;;;;10.28;100.00;97291.66;2006598;80;20249;-72
2022/01/04 08:55:51;;;;;;;1.27;0.71;;;;;;;10.29;100.00;97297.69;2005661;80;20197;-72
2022/01/04 08:58:55;;;;;;;1.61;0.80;;;;;;;10.30;100.00;97294.19;2006437;80;20637;-72
2022/01/04 09:01:58;;;;;;;0.80;0.59;;;;;;;10.32;100.00;97287.22;2005040;77;21480;-72
2022/01/04 09:05:01;;;;;;;2.16;0.75;;;;;;;10.34;100.00;97292.34;2006542;80;20204;-72
2022/01/04 09:08:04;;;;;;;1.30;0.71;;;;;;;10.37;100.00;97289.63;2006625;80;20219;-73
2022/01/04 09:11:07;;;;;;;1.30;0.90;;;;;;;10.37;100.00;97287.88;2007043;80;20213;-72
2022/01/04 09:20:34;;;;;;;1.13;0.80;;;;;;;10.38;100.00;97286.97;2006151;80;20270;-72
2022/01/04 09:23:37;;;;;;;1.58;0.77;;;;;;;10.39;100.00;97291.25;2005697;80;20825;-73
2022/01/04 09:26:40;;;;;;;0.76;0.69;;;;;;;10.40;100.00;97286.91;2006963;80;20231;-72
2022/01/04 09:29:43;;;;;;;1.69;0.90;;;;;;;10.42;100.00;97290.31;2006980;80;20498;-71
2022/01/04 09:32:45;;;;;;;1.08;0.66;;;;;;;10.41;100.00;97284.28;2004513;77;28110;-71
2022/01/04 09:35:51;;;;;;;1.41;0.70;;;;;;;10.45;100.00;97297.97;2006195;80;20388;-72
2022/01/04 09:38:54;;;;;;;1.21;0.80;;;;;;;10.44;100.00;97310.09;2006681;80;20238;-71
2022/01/04 09:41:59;;;;;;;2.65;0.63;;;;;;;10.45;100.00;97334.31;2006029;80;20349;-72
2022/01/04 09:45:02;;;;;;;1.55;0.50;;;;;;;10.47;100.00;97343.72;2004932;80;20459;-71
2022/01/04 09:48:05;;;;;;;1.64;0.30;;;;;;;10.49;100.00;97356.63;2006719;77;22261;-72
2022/01/04 09:51:10;;;;;;;1.36;0.34;;;;;;;10.44;100.00;97367.19;2006725;80;20247;-73
2022/01/04 09:54:17;;;;;;;0.25;0.20;;;;;;;10.24;98.20;97383.47;2006932;80;20281;-72
2022/01/04 09:57:21;;;;;;;0.39;0.21;;;;;;;10.08;96.80;97392.66;2006805;80;20315;-72
2022/01/04 10:00:23;;;;;;;0.29;0.20;;;;;;;9.85;95.23;97398.59;2004656;77;21179;-72
2022/01/04 10:03:29;;;;;;;0.10;0.10;;;;;;;9.73;94.85;97416.31;2006604;80;20193;-72
2022/01/04 10:06:34;;;;;;;0.29;0.11;;;;;;;9.62;94.55;97414.06;2005972;80;20849;-72
2022/01/04 10:09:45;;;;;;;0.63;0.10;;;;;;;9.51;94.29;97421.31;2006243;80;20178;-72
2022/01/04 10:12:51;;;;;;;1.10;0.10;;;;;;;9.41;94.15;97431.13;2005923;80;20339;-72
2022/01/04 10:15:54;;;;;;;0.47;0.20;;;;;;;9.34;94.19;97433.09;2000759;77;20376;-73
2022/01/04 10:19:02;;;;;;;0.30;0.30;;;;;;;9.28;94.18;97445.34;2009193;80;20229;-71
2022/01/04 10:22:18;;;;;;;0.96;0.38;;;;;;;9.23;94.24;97436.88;2006649;80;20247;-72
2022/01/04 10:25:21;;;;;;;0.47;0.47;;;;;;;9.16;94.17;97430.22;2005511;80;20392;-72
2022/01/04 10:28:50;;;;;;;0.45;0.45;;;;;;;9.09;94.16;97440.72;2006327;80;20242;-72
2022/01/04 10:31:53;;;;;;;1.00;0.40;;;;;;;8.99;93.66;97433.31;2003653;77;20994;-73
2022/01/04 10:34:56;;;;;;;0.65;0.38;;;;;;;8.91;93.51;97449.03;2005399;80;20189;-72
2022/01/04 10:38:11;;;;;;;0.46;0.38;;;;;;;8.82;93.41;97451.91;2005749;80;20303;-72
2022/01/04 10:41:17;;;;;;;0.56;0.40;;;;;;;8.77;93.42;97454.59;2006012;80;20384;-72
2022/01/04 10:44:31;;;;;;;0.45;0.45;;;;;;;8.70;93.45;97454.84;2005351;80;20185;-72
2022/01/04 10:47:34;;;;;;;0.50;0.50;;;;;;;8.66;93.72;97469.59;2003009;78;20374;-73
2022/01/04 10:50:38;;;;;;;0.40;0.40;;;;;;;8.66;94.15;97461.84;2006239;80;20358;-73
2022/01/04 10:53:46;;;;;;;0.25;0.20;;;;;;;8.60;93.94;97467.16;2006327;80;20363;-73
2022/01/04 10:57:02;;;;;;;0.20;0.20;;;;;;;8.61;94.26;97471.44;2006644;80;20319;-73
2022/01/04 11:00:23;;;;;;;0.34;0.20;;;;;;;8.58;93.94;97483.63;2005599;80;20698;-73
2022/01/04 11:03:29;;;;;;;1.21;0.30;;;;;;;8.51;93.89;97488.13;2005699;80;20340;-73
2022/01/04 11:06:38;;;;;;;0.10;0.10;;;;;;;8.45;93.77;97489.13;2006113;80;20560;-73
2022/01/04 11:09:41;;;;;;;0.10;0.10;;;;;;;8.43;93.90;97501.22;2006186;80;20475;-72
2022/01/04 11:12:44;;;;;;;0.31;0.20;;;;;;;8.39;93.99;97496.19;2005749;80;20894;-73
2022/01/04 11:15:46;;;;;;;0.39;0.10;;;;;;;8.36;94.15;97504.03;2004618;80;20787;-73
2022/01/04 11:18:52;;;;;;;0.10;0.10;;;;;;;8.33;93.83;97514.44;2005089;80;20339;-73
2022/01/04 11:21:59;;;;;;;0.10;0.10;;;;;;;8.32;93.93;97517.91;2005506;80;20423;-73
2022/01/04 11:25:03;;;;;;;0.14;0.10;;;;;;;8.31;93.95;97518.78;2000893;80;20960;-73
2022/01/04 11:28:08;;;;;;;0.51;0.10;;;;;;;8.31;94.03;97537.75;2005613;80;21261;-74
2022/01/04 11:31:29;;;;;;;0.20;0.10;;;;;;;8.28;93.77;97530.06;2003740;78;23284;-72
2022/01/04 11:35:02;;;;;;;0.30;0.30;;;;;;;8.28;93.79;97530.06;2004725;80;20423;-72
2022/01/04 11:38:05;;;;;;;0.29;0.21;;;;;;;8.26;93.59;97538.72;2005140;80;20331;-73
2022/01/04 11:41:08;;;;;;;1.14;0.34;;;;;;;8.22;93.02;97544.88;2006601;80;21027;-72
2022/01/04 11:44:24;;;;;;;0.50;0.35;;;;;;;8.21;93.26;97548.34;2005821;80;20323;-73
2022/01/04 11:47:28;;;;;;;0.20;0.20;;;;;;;8.15;93.01;97565.72;2003205;77;30318;-72
2022/01/04 11:50:36;;;;;;;0.10;0.10;;;;;;;8.09;92.77;97565.00;2005149;80;20343;-73
2022/01/04 11:53:39;;;;;;;0.20;0.20;;;;;;;8.06;92.80;97571.06;2005008;80;20345;-73
2022/01/04 11:56:54;;;;;;;0.10;0.10;;;;;;;8.00;92.59;97584.16;2005061;80;20185;-73
2022/01/04 12:00:02;;;;;;;0.10;0.10;;;;;;;7.91;92.50;97588.69;2005194;80;20358;-72
2022/01/04 12:03:10;;;;;;;0.20;0.10;;;;;;;7.86;92.95;97589.63;1999583;81;21729;-72
2022/01/04 12:06:21;;;;;;;1.40;0.11;;;;;;;7.89;93.29;97599.03;2000323;81;21211;-72
2022/01/04 12:09:29;;;;;;;1.59;0.16;;;;;;;7.86;93.12;97604.28;2000927;81;21067;-73
2022/01/04 12:12:55;;;;;;;0.61;0.10;;;;;;;7.87;93.41;97600.81;2000473;81;21262;-73
2022/01/04 12:16:05;;;;;;;0.15;0.15;;;;;;;7.85;93.26;97598.28;2000660;78;20535;-73
2022/01/04 12:19:15;;;;;;;0.10;0.10;;;;;;;7.85;93.62;97608.59;2005949;80;20393;-73
2022/01/04 12:22:30;;;;;;;;;;;;;;;7.81;93.61;97603.56;2005880;80;20372;-73
2022/01/04 12:25:33;;;;;;;0.54;0.16;;;;;;;7.84;93.81;97616.41;2005199;80;20495;-73
2022/01/04 12:28:42;;;;;;;0.20;0.20;;;;;;;7.75;93.12;97620.03;2005596;80;20984;-73
2022/01/04 12:31:49;;;;;;;0.15;0.15;;;;;;;7.74;93.09;97636.44;2004768;77;23199;-72
2022/01/04 12:35:00;;;;;;;0.20;0.20;;;;;;;7.75;93.16;97619.19;2005459;80;20299;-73
2022/01/04 12:38:06;;;;;;;0.20;0.20;;;;;;;7.69;93.30;97622.75;2005751;80;20331;-73
2022/01/04 12:41:09;;;;;;;0.94;0.16;;;;;;;7.68;93.58;97633.09;2005611;80;20338;-74
2022/01/04 12:44:14;;;;;;;0.10;0.10;;;;;;;7.62;93.24;97633.25;2005160;80;20311;-73
2022/01/04 12:47:18;;;;;;;0.10;0.10;;;;;;;7.61;93.54;97634.13;2004806;78;23512;-73
2022/01/04 12:50:24;;;;;;;0.82;0.10;;;;;;;7.56;93.08;97640.25;2004587;80;20296;-73
2022/01/04 12:53:36;;;;;;;0.20;0.20;;;;;;;7.53;93.29;97644.59;2005602;80;22045;-72
2022/01/04 12:56:43;;;;;;;0.10;0.10;;;;;;;7.50;93.36;97644.66;2008910;80;20378;-73
2022/01/04 12:59:49;;;;;;;0.10;0.10;;;;;;;7.50;93.34;97661.00;2004818;80;20518;-72
2022/01/04 13:02:51;;;;;;;0.13;0.10;;;;;;;7.46;93.10;97664.53;2003515;78;21939;-73
2022/01/04 13:06:04;;;;;;;0.10;0.10;;;;;;;7.39;92.76;97662.97;2004666;80;20311;-73
2022/01/04 13:09:06;;;;;;;0.30;0.20;;;;;;;7.36;93.19;97663.03;2005445;80;20335;-73
2022/01/04 13:12:09;;;;;;;0.20;0.20;;;;;;;7.33;93.08;97678.56;2005363;80;20503;-72
2022/01/04 13:15:15;;;;;;;0.20;0.11;;;;;;;7.27;92.96;97681.28;2003837;80;20350;-73
2022/01/04 13:18:27;;;;;;;0.43;0.20;;;;;;;7.26;93.40;97683.00;2004498;80;20339;-72
2022/01/04 13:21:29;;;;;;;0.22;0.15;;;;;;;7.24;93.44;97683.91;2005234;80;20339;-73
2022/01/04 13:24:36;;;;;;;0.20;0.20;;;;;;;7.20;93.43;97685.72;2005712;80;21036;-72
2022/01/04 13:27:41;;;;;;;0.40;0.30;;;;;;;7.13;93.09;97698.72;2004293;80;20994;-73
2022/01/04 13:30:47;;;;;;;0.25;0.10;;;;;;;7.11;93.29;97701.34;2003795;79;21643;-73
2022/01/04 13:33:50;;;;;;;0.22;0.20;;;;;;;7.09;93.28;97704.84;2005196;80;20370;-73
2022/01/04 13:36:53;;;;;;;0.20;0.20;;;;;;;7.09;93.53;97702.25;2004314;80;20997;-73
2022/01/04 13:39:56;;;;;;;0.52;0.20;;;;;;;7.06;93.58;97705.75;2005131;80;20331;-73
2022/01/04 13:43:02;;;;;;;0.30;0.30;;;;;;;7.04;93.51;97704.06;2005513;80;20830;-73
2022/01/04 13:46:11;;;;;;;0.47;0.20;;;;;;;7.02;93.67;97711.84;2003082;78;23066;-73
2022/01/04 13:49:24;;;;;;;0.50;0.13;;;;;;;7.01;93.77;97714.47;2004934;80;20330;-73
2022/01/04 13:52:27;;;;;;;0.20;0.20;;;;;;;6.95;93.70;97708.50;2004019;80;20347;-72
2022/01/04 13:55:46;;;;;;;0.11;0.10;;;;;;;6.91;93.41;97724.06;2004852;80;20482;-73
2022/01/04 13:58:54;;;;;;;;;;;;;;;6.84;93.47;97725.06;2005393;80;20359;-73
2022/01/04 14:01:56;;;;;;;0.51;0.17;;;;;;;6.80;93.26;97724.22;2004434;80;23265;-73
2022/01/04 14:05:13;;;;;;;0.20;0.20;;;;;;;6.78;93.43;97731.16;2007387;80;20393;-72
2022/01/04 14:08:16;;;;;;;0.16;0.10;;;;;;;6.78;93.64;97727.72;2006671;80;20838;-72
2022/01/04 14:11:30;;;;;;;0.51;0.20;;;;;;;6.76;93.70;97720.00;2007120;80;21388;-73
2022/01/04 14:14:43;;;;;;;0.20;0.20;;;;;;;6.76;93.92;97711.41;2007067;80;20331;-72
2022/01/04 14:17:47;;;;;;;0.38;0.20;;;;;;;6.77;94.25;97713.13;2005941;78;20791;-72
2022/01/04 14:20:56;;;;;;;1.26;0.31;;;;;;;6.78;94.57;97707.94;2006024;80;20347;-73
2022/01/04 14:23:59;;;;;;;0.34;0.30;;;;;;;6.80;94.76;97728.53;2007176;80;20331;-73
2022/01/04 14:27:22;;;;;;;0.66;0.30;;;;;;;6.83;95.14;97724.22;2005989;80;20215;-73
2022/01/04 14:30:26;;;;;;;0.26;0.20;;;;;;;6.84;95.31;97735.38;2004820;78;22297;-73
2022/01/04 14:33:29;;;;;;;1.16;0.30;;;;;;;6.84;95.48;97733.66;2005903;80;20372;-74
2022/01/04 14:36:31;;;;;;;0.54;0.30;;;;;;;6.84;95.38;97732.78;2006744;80;20348;-73
2022/01/04 14:39:34;;;;;;;0.60;0.40;;;;;;;6.82;94.76;97732.81;2005603;80;20329;-73
2022/01/04 14:42:39;;;;;;;0.84;0.60;;;;;;;6.81;94.73;97727.66;2006137;80;20323;-73